If you wish to contribute or participate in the discussions about articles you are invited to join SKYbrary as a registered user

 Actions

Alderney Airport

From SKYbrary Wiki

EGJA
Airport
ICAO: EGJA – IATA: ACI
Summary
Name Alderney Airport
Region Europe
Territory United Kingdom GB.gif
Location St. Anne, Guernsey
Serving Alderney
Elevation 88.392 m <br />290 ft <br />290 ft88.392 m <br />
Type medium airport
Coordinates 49° 42' 22.00" N, 2° 12' 53.00" W
Runways
Designator Length Width Surface ROPS
3/21 497 m1,630.577 ft <br /> 37 m121.391 ft <br /> GRE /
8/26 880 m2,887.139 ft <br /> 23 m75.459 ft <br /> ASP /
14/32 732 m2,401.575 ft <br /> 37 m121.391 ft <br /> GRE /


METAR
Observation EGJA 271620Z 07012KT CAVOK 08/06 Q1038
Station Alderney / Channel Island
Date/Time 27 February 2021 16:20:00
Wind direction 70°
Wind speed 12 kts
Lowest cloud amount clouds and visibility OK
Temperature 8°C
Dew point 6°C
Humidity 87%
QNH 1038 hPa
Weather condition n/a

Alderney Airport

ICAO: EGJA IATA: ACI

Description

Alderney Airport is the only airport on the island of Alderney. Located on the Blaye 1.9 km1.026 nm <br />1,900 m <br />6,233.596 ft <br /> southwest of St Anne, it is the closest Channel Island airport to the south coast of England and the coast of France.

Maps

Terrain

Loading map...

Airport Layout

Loading map...


Accidents & Serious Incidents at or in vicinity of EGJA

None on SKYbrary